createdAt,value
2018-10-17T00:02:24.387Z,74.80
2018-10-17T00:04:52.755Z,74.70
2018-10-17T00:07:21.027Z,74.90
2018-10-17T00:09:49.338Z,74.90
2018-10-17T00:12:17.642Z,75.00
2018-10-17T00:14:45.971Z,75.20
2018-10-17T00:17:14.345Z,75.40
2018-10-17T00:19:42.627Z,75.40
2018-10-17T00:22:10.920Z,75.50
2018-10-17T00:24:39.240Z,75.90
2018-10-17T00:27:07.539Z,76.00
2018-10-17T00:29:35.854Z,76.10
2018-10-17T00:32:04.186Z,76.30
2018-10-17T00:34:32.491Z,76.50
2018-10-17T00:37:00.842Z,76.60
2018-10-17T00:39:29.129Z,76.70
2018-10-17T00:41:57.443Z,76.70
2018-10-17T00:44:25.755Z,76.80
2018-10-17T00:46:54.129Z,76.80
2018-10-17T00:49:22.388Z,77.00
2018-10-17T00:51:50.722Z,77.10
2018-10-17T00:54:19.015Z,77.10
2018-10-17T00:56:47.331Z,77.20
2018-10-17T00:59:16.787Z,77.30
2018-10-17T01:01:45.098Z,77.60
2018-10-17T01:04:13.406Z,78.20
2018-10-17T01:06:41.735Z,78.00
2018-10-17T01:09:11.637Z,78.20
2018-10-17T01:11:40.340Z,78.20
2018-10-17T01:14:09.207Z,78.20
2018-10-17T01:16:37.526Z,78.20
2018-10-17T01:19:06.332Z,78.10
2018-10-17T01:21:35.387Z,78.30
2018-10-17T01:24:03.714Z,78.20
2018-10-17T01:26:32.143Z,78.30
2018-10-17T01:29:00.452Z,78.20
2018-10-17T01:31:28.819Z,78.30
2018-10-17T01:33:57.129Z,78.50
2018-10-17T01:36:25.447Z,79.00
2018-10-17T01:38:53.747Z,79.50
2018-10-17T01:41:22.060Z,79.50
2018-10-17T01:43:50.358Z,79.40
2018-10-17T01:46:18.704Z,79.50
2018-10-17T01:48:46.995Z,79.40
2018-10-17T01:51:15.324Z,79.10
2018-10-17T01:53:43.630Z,79.10
2018-10-17T01:56:11.943Z,79.20
2018-10-17T01:58:40.249Z,79.40
2018-10-17T02:01:08.604Z,79.50
2018-10-17T02:03:36.907Z,80.00
2018-10-17T02:06:06.399Z,80.20
2018-10-17T02:08:34.711Z,80.50
2018-10-17T02:11:03.069Z,80.90
2018-10-17T02:13:31.347Z,81.20
2018-10-17T02:15:59.663Z,81.30
2018-10-17T02:18:27.963Z,81.50
2018-10-17T02:20:56.299Z,82.20
2018-10-17T02:23:24.593Z,81.70
2018-10-17T02:25:52.916Z,81.80
2018-10-17T02:28:21.231Z,82.10
2018-10-17T02:30:49.551Z,82.20
2018-10-17T02:33:17.855Z,82.50
2018-10-17T02:35:46.188Z,82.50
2018-10-17T02:38:14.507Z,82.70
2018-10-17T02:40:42.832Z,82.80
2018-10-17T02:43:11.222Z,82.80
2018-10-17T02:45:39.503Z,82.80
2018-10-17T02:48:07.831Z,83.00
2018-10-17T02:50:36.133Z,82.90
2018-10-17T02:53:04.737Z,83.10
2018-10-17T02:55:33.024Z,83.30
2018-10-17T02:58:01.418Z,83.30
2018-10-17T03:00:29.741Z,83.40
2018-10-17T03:02:58.062Z,83.40
2018-10-17T03:05:26.371Z,83.60
2018-10-17T03:07:54.695Z,83.50
2018-10-17T03:10:23.000Z,83.40
2018-10-17T03:12:51.426Z,83.20
2018-10-17T03:15:19.720Z,83.20
2018-10-17T03:17:48.033Z,83.30
2018-10-17T03:20:16.335Z,83.40
2018-10-17T03:22:44.700Z,83.20
2018-10-17T03:25:13.047Z,83.50
2018-10-17T03:27:41.346Z,83.50
2018-10-17T03:30:09.674Z,83.50
2018-10-17T03:32:37.997Z,83.60
2018-10-17T03:35:07.275Z,83.70
2018-10-17T03:37:35.835Z,83.90
2018-10-17T03:40:04.477Z,84.10
2018-10-17T03:42:33.816Z,84.40
2018-10-17T03:45:02.134Z,84.80
2018-10-17T03:47:30.463Z,85.10
2018-10-17T03:49:58.819Z,85.30
2018-10-17T03:52:27.126Z,85.30
2018-10-17T03:54:55.481Z,85.40
2018-10-17T03:57:23.779Z,85.70
2018-10-17T03:59:52.080Z,86.50
2018-10-17T04:02:20.402Z,85.90
2018-10-17T04:04:48.702Z,86.30
2018-10-17T04:07:17.132Z,86.20
2018-10-17T04:09:45.345Z,85.90
2018-10-17T04:12:13.669Z,86.30
2018-10-17T04:14:41.970Z,86.20
2018-10-17T04:17:10.309Z,86.20
2018-10-17T04:19:38.601Z,86.10
2018-10-17T04:22:06.946Z,86.20
2018-10-17T04:24:35.248Z,86.00
2018-10-17T04:27:03.576Z,86.30
2018-10-17T04:29:31.863Z,86.30
2018-10-17T04:32:00.176Z,86.80
2018-10-17T04:34:28.480Z,86.30
2018-10-17T04:36:56.818Z,86.10
2018-10-17T04:39:25.150Z,86.20
2018-10-17T04:41:53.480Z,86.20
2018-10-17T04:44:21.813Z,86.00
2018-10-17T04:46:50.152Z,86.10
2018-10-17T04:49:18.534Z,86.20
2018-10-17T04:51:46.800Z,86.70
2018-10-17T04:54:15.100Z,86.90
2018-10-17T04:56:43.428Z,87.00
2018-10-17T04:59:11.806Z,86.90
2018-10-17T05:01:40.083Z,87.00
2018-10-17T05:04:08.406Z,87.00
2018-10-17T05:06:36.751Z,87.00
2018-10-17T05:09:08.588Z,86.90
2018-10-17T05:11:36.899Z,87.00
2018-10-17T05:14:05.964Z,86.90
2018-10-17T05:16:34.268Z,86.70
2018-10-17T05:19:02.636Z,87.00
2018-10-17T05:21:30.920Z,86.90
2018-10-17T05:23:59.227Z,87.10
2018-10-17T05:26:27.539Z,87.00
2018-10-17T05:28:55.925Z,86.80
2018-10-17T05:31:24.188Z,86.80
2018-10-17T05:33:52.516Z,86.80
2018-10-17T05:36:20.812Z,86.90
2018-10-17T05:38:49.131Z,86.70
2018-10-17T05:41:17.429Z,86.70
2018-10-17T05:43:45.744Z,86.90
2018-10-17T05:46:14.065Z,86.80
2018-10-17T05:48:42.380Z,86.90
2018-10-17T05:51:10.681Z,87.20
2018-10-17T05:53:39.009Z,87.40
2018-10-17T05:56:07.312Z,87.40
2018-10-17T05:58:35.633Z,87.70
2018-10-17T06:01:03.961Z,87.80
2018-10-17T06:03:32.276Z,88.10
2018-10-17T06:06:00.586Z,88.20
2018-10-17T06:08:28.919Z,88.60
2018-10-17T06:10:57.226Z,88.90
2018-10-17T06:13:25.564Z,88.60
2018-10-17T06:15:53.868Z,89.10
2018-10-17T06:18:22.661Z,90.00
2018-10-17T06:20:50.981Z,89.10
2018-10-17T06:23:19.299Z,88.80
2018-10-17T06:25:47.603Z,88.40
2018-10-17T06:28:15.933Z,88.30
2018-10-17T06:30:44.320Z,88.00
2018-10-17T06:33:12.591Z,88.10
2018-10-17T06:35:40.892Z,88.20
2018-10-17T06:38:09.211Z,88.40
2018-10-17T06:40:37.516Z,88.80
2018-10-17T06:43:05.928Z,89.10
2018-10-17T06:45:34.229Z,89.60
2018-10-17T06:48:02.552Z,89.60
2018-10-17T06:50:30.846Z,90.40
2018-10-17T06:52:59.213Z,90.20
2018-10-17T06:55:27.484Z,90.40
2018-10-17T06:57:55.824Z,90.70
2018-10-17T07:00:24.152Z,90.90
2018-10-17T07:02:52.471Z,91.30
2018-10-17T07:05:20.777Z,91.40
2018-10-17T07:07:49.095Z,91.50
2018-10-17T07:10:17.397Z,91.50
2018-10-17T07:12:45.727Z,91.40
2018-10-17T07:15:14.131Z,91.40
2018-10-17T07:17:42.364Z,91.40
2018-10-17T07:20:10.699Z,91.40
2018-10-17T07:22:39.020Z,91.70
2018-10-17T07:25:07.360Z,91.90
2018-10-17T07:27:35.961Z,92.10
2018-10-17T07:30:05.364Z,92.40
2018-10-17T07:32:33.691Z,92.70
2018-10-17T07:35:02.024Z,93.00
2018-10-17T07:37:30.325Z,93.00
2018-10-17T07:39:58.639Z,93.10
2018-10-17T07:42:26.947Z,93.40
2018-10-17T07:44:55.284Z,93.60
2018-10-17T07:47:23.594Z,93.90
2018-10-17T07:49:51.920Z,94.30
2018-10-17T07:52:20.221Z,94.70
2018-10-17T07:54:48.547Z,94.80
2018-10-17T07:57:16.860Z,94.90
2018-10-17T07:59:45.227Z,94.90
2018-10-17T08:02:13.517Z,94.80
2018-10-17T08:04:41.840Z,94.80
2018-10-17T08:07:10.167Z,94.80
2018-10-17T08:09:38.487Z,94.80
2018-10-17T08:12:06.804Z,94.90
2018-10-17T08:14:35.129Z,95.00
2018-10-17T08:17:03.436Z,95.10
2018-10-17T08:19:31.765Z,95.10
2018-10-17T08:22:00.106Z,95.20
2018-10-17T08:24:28.437Z,95.30
2018-10-17T08:26:56.793Z,95.30
2018-10-17T08:29:25.132Z,94.90
2018-10-17T08:31:53.444Z,94.50
2018-10-17T08:34:21.775Z,94.20
2018-10-17T08:36:51.072Z,93.70
2018-10-17T08:39:19.254Z,93.50
2018-10-17T08:41:47.568Z,93.20
2018-10-17T08:44:16.005Z,93.20
2018-10-17T08:46:44.277Z,93.20
2018-10-17T08:49:12.612Z,93.00
2018-10-17T08:51:40.976Z,93.00
2018-10-17T08:54:09.307Z,92.80
2018-10-17T08:56:37.628Z,92.80
2018-10-17T08:59:05.963Z,92.70
2018-10-17T09:01:34.299Z,92.40
2018-10-17T09:04:02.674Z,92.70
2018-10-17T09:06:30.983Z,92.20
2018-10-17T09:08:59.331Z,91.90
2018-10-17T09:11:27.644Z,91.80
2018-10-17T09:13:56.001Z,91.70
2018-10-17T09:16:24.372Z,91.60
2018-10-17T09:18:52.715Z,91.40
2018-10-17T09:21:21.191Z,91.30
2018-10-17T09:23:49.379Z,91.00
2018-10-17T09:26:17.691Z,90.80
2018-10-17T09:28:45.999Z,90.70
2018-10-17T09:31:14.320Z,90.70
2018-10-17T09:33:42.635Z,90.40
2018-10-17T09:36:11.023Z,90.30
2018-10-17T09:38:39.307Z,90.20
2018-10-17T09:41:07.643Z,90.00
2018-10-17T09:43:35.958Z,89.70
2018-10-17T09:46:04.698Z,89.40
2018-10-17T09:48:33.018Z,89.00
2018-10-17T09:51:01.352Z,88.80
2018-10-17T09:53:29.720Z,88.40
2018-10-17T09:55:58.003Z,87.80
2018-10-17T09:58:26.371Z,87.30
2018-10-17T10:01:00.117Z,86.90
2018-10-17T10:03:28.460Z,86.60
2018-10-17T10:05:56.945Z,86.20
2018-10-17T10:08:25.275Z,86.00
2018-10-17T10:10:53.613Z,85.30
2018-10-17T10:13:21.920Z,85.10
2018-10-17T10:15:50.246Z,85.00
2018-10-17T10:18:18.568Z,84.80
2018-10-17T10:20:46.895Z,83.80
2018-10-17T10:23:15.310Z,83.20
2018-10-17T10:25:43.613Z,82.60
2018-10-17T10:28:12.014Z,82.30
2018-10-17T10:33:15.050Z,82.10
2018-10-17T10:35:43.392Z,81.30
2018-10-17T10:38:11.715Z,81.00
2018-10-17T10:40:40.167Z,80.80
2018-10-17T10:43:08.408Z,80.20
2018-10-17T10:45:36.889Z,79.70
2018-10-17T10:48:05.309Z,79.50
2018-10-17T10:50:33.648Z,79.40
2018-10-17T10:53:02.081Z,78.90
2018-10-17T10:55:30.316Z,79.00
2018-10-17T10:57:58.671Z,78.70
2018-10-17T11:00:26.986Z,78.90
2018-10-17T11:02:55.369Z,78.70
2018-10-17T11:05:23.818Z,78.10
2018-10-17T11:07:52.042Z,78.00
2018-10-17T11:10:20.408Z,77.60
2018-10-17T11:12:48.728Z,75.50
2018-10-17T11:15:17.056Z,74.90
2018-10-17T11:17:45.368Z,74.10
2018-10-17T11:20:13.710Z,73.20
2018-10-17T11:22:42.011Z,72.30
2018-10-17T11:25:10.437Z,71.40
2018-10-17T11:27:38.747Z,68.90
2018-10-17T11:30:08.727Z,67.50
2018-10-17T11:32:37.127Z,67.20
2018-10-17T11:35:06.482Z,66.40
2018-10-17T11:37:34.835Z,67.30
2018-10-17T11:40:03.251Z,66.90
2018-10-17T11:42:31.612Z,67.10
2018-10-17T11:44:59.962Z,67.50
2018-10-17T11:47:28.323Z,66.10
2018-10-17T11:49:56.647Z,65.30
2018-10-17T11:52:24.956Z,65.20
2018-10-17T11:54:53.267Z,64.80
2018-10-17T11:57:21.736Z,63.00
2018-10-17T11:59:50.159Z,62.60
2018-10-17T12:02:18.433Z,63.00
2018-10-17T12:04:47.332Z,62.00
2018-10-17T12:07:15.351Z,62.00
2018-10-17T12:09:43.656Z,62.70
2018-10-17T12:12:12.001Z,61.10
2018-10-17T12:14:40.307Z,60.10
2018-10-17T12:17:08.657Z,59.80
2018-10-17T12:19:36.961Z,60.50
2018-10-17T12:22:05.339Z,60.40
2018-10-17T12:24:33.637Z,60.30
2018-10-17T12:27:02.063Z,60.00
2018-10-17T12:29:30.341Z,59.70
2018-10-17T12:31:58.681Z,58.90
2018-10-17T12:34:26.994Z,58.40
2018-10-17T12:36:55.349Z,57.80
2018-10-17T12:39:23.783Z,57.80
2018-10-17T12:41:51.992Z,57.80
2018-10-17T12:44:21.526Z,57.50
2018-10-17T12:46:49.811Z,56.80
2018-10-17T12:49:18.113Z,56.20
2018-10-17T12:51:46.463Z,55.70
2018-10-17T12:54:14.772Z,55.10
2018-10-17T12:56:43.095Z,54.40
2018-10-17T12:59:11.461Z,54.00
2018-10-17T13:01:39.748Z,53.90
2018-10-17T13:04:08.060Z,54.80
2018-10-17T13:06:36.421Z,54.20
2018-10-17T13:09:08.105Z,54.00
2018-10-17T13:11:36.561Z,53.50
2018-10-17T13:14:04.795Z,54.20
2018-10-17T13:16:33.132Z,53.70
2018-10-17T13:19:01.628Z,53.10
2018-10-17T13:21:29.958Z,52.80
2018-10-17T13:23:58.489Z,52.10
2018-10-17T13:26:26.819Z,51.90
2018-10-17T13:28:55.226Z,51.80
2018-10-17T13:31:23.537Z,51.60
2018-10-17T13:33:51.843Z,51.30
2018-10-17T13:36:20.167Z,51.30
2018-10-17T13:38:48.451Z,51.30
2018-10-17T13:41:16.847Z,51.30
2018-10-17T13:43:45.095Z,51.00
2018-10-17T13:46:13.428Z,51.00
2018-10-17T13:48:41.733Z,50.90
2018-10-17T13:51:10.060Z,50.90
2018-10-17T13:53:38.351Z,50.90
2018-10-17T13:56:06.744Z,51.00
2018-10-17T13:58:35.036Z,50.90
2018-10-17T14:01:03.423Z,51.10
2018-10-17T14:03:31.680Z,50.60
2018-10-17T14:06:00.068Z,50.80
2018-10-17T14:08:28.327Z,51.10
2018-10-17T14:10:56.624Z,51.30
2018-10-17T14:13:25.450Z,50.90
2018-10-17T14:15:53.692Z,50.70
2018-10-17T14:18:22.011Z,50.60
2018-10-17T14:20:50.320Z,50.50
2018-10-17T14:23:18.688Z,50.80
2018-10-17T14:25:46.965Z,51.20
2018-10-17T14:28:15.298Z,51.30
2018-10-17T14:30:43.604Z,51.10
2018-10-17T14:33:11.935Z,51.10
2018-10-17T14:35:40.259Z,51.10
2018-10-17T14:38:08.579Z,51.00
2018-10-17T14:43:11.628Z,51.40
2018-10-17T14:45:39.955Z,51.60
2018-10-17T14:48:08.420Z,52.20
2018-10-17T14:50:36.966Z,52.20
2018-10-17T14:53:05.734Z,52.70
2018-10-17T14:55:34.093Z,51.60
2018-10-17T14:58:02.464Z,52.40
2018-10-17T15:00:30.790Z,52.80
2018-10-17T15:02:59.108Z,53.00
2018-10-17T15:05:27.416Z,53.40
2018-10-17T15:07:55.737Z,52.90
2018-10-17T15:10:24.116Z,53.20
2018-10-17T15:12:52.420Z,53.30
2018-10-17T15:15:20.826Z,53.50
2018-10-17T15:17:49.061Z,54.00
2018-10-17T15:20:17.376Z,54.10
2018-10-17T15:22:46.072Z,54.30
2018-10-17T15:25:14.380Z,54.60
2018-10-17T15:27:42.704Z,54.90
2018-10-17T15:30:11.039Z,55.20
2018-10-17T15:32:39.360Z,55.50
2018-10-17T15:35:08.109Z,55.80
2018-10-17T15:37:36.425Z,56.20
2018-10-17T15:40:05.159Z,56.60
2018-10-17T15:42:33.493Z,56.90
2018-10-17T15:45:01.857Z,57.10
2018-10-17T15:47:30.159Z,57.40
2018-10-17T15:49:58.446Z,57.70
2018-10-17T15:52:26.758Z,58.00
2018-10-17T15:54:55.050Z,58.50
2018-10-17T15:57:23.370Z,58.90
2018-10-17T15:59:51.697Z,59.10
2018-10-17T16:02:20.193Z,59.20
2018-10-17T16:04:48.343Z,59.50
2018-10-17T16:07:16.655Z,59.70
2018-10-17T16:09:44.948Z,60.00
2018-10-17T16:12:13.296Z,60.30
2018-10-17T16:14:41.672Z,60.60
2018-10-17T16:17:10.087Z,61.10
2018-10-17T16:19:39.159Z,61.40
2018-10-17T16:22:07.620Z,61.70
2018-10-17T16:24:36.192Z,62.00
2018-10-17T16:27:04.771Z,62.30
2018-10-17T16:29:33.106Z,62.70
2018-10-17T16:32:01.524Z,63.50
2018-10-17T16:34:29.876Z,63.20
2018-10-17T16:36:58.176Z,63.50
2018-10-17T16:39:26.482Z,63.80
2018-10-17T16:41:54.830Z,64.00
2018-10-17T16:44:23.243Z,64.20
2018-10-17T16:46:51.543Z,64.60
2018-10-17T16:49:19.851Z,65.00
2018-10-17T16:51:48.201Z,65.30
2018-10-17T16:54:16.669Z,65.60
2018-10-17T16:56:44.831Z,65.90
2018-10-17T16:59:13.153Z,66.10
2018-10-17T17:01:41.451Z,66.40
2018-10-17T17:04:09.808Z,66.70
2018-10-17T17:06:38.090Z,66.90
2018-10-17T17:09:08.317Z,67.20
2018-10-17T17:11:36.579Z,67.40
2018-10-17T17:14:07.196Z,67.60
2018-10-17T17:16:35.880Z,67.80
2018-10-17T17:19:06.645Z,68.00
2018-10-17T17:21:34.939Z,68.10
2018-10-17T17:24:03.444Z,68.30
2018-10-17T17:26:31.745Z,68.60
2018-10-17T17:29:00.057Z,68.80
2018-10-17T17:31:28.355Z,69.00
2018-10-17T17:33:56.681Z,69.20
2018-10-17T17:36:25.025Z,69.70
2018-10-17T17:38:53.320Z,69.60
2018-10-17T17:41:21.637Z,69.90
2018-10-17T17:43:49.964Z,70.10
2018-10-17T17:46:18.296Z,70.20
2018-10-17T17:48:46.615Z,70.60
2018-10-17T17:51:14.933Z,70.70
2018-10-17T17:53:43.251Z,70.90
2018-10-17T17:56:11.552Z,71.20
2018-10-17T17:58:40.013Z,71.50
2018-10-17T18:01:08.253Z,71.60
2018-10-17T18:03:36.577Z,71.80
2018-10-17T18:06:04.880Z,71.80
2018-10-17T18:08:33.184Z,71.90
2018-10-17T18:11:15.943Z,72.00
2018-10-17T18:13:44.436Z,72.20
2018-10-17T18:16:12.817Z,72.50
2018-10-17T18:18:41.400Z,72.50
2018-10-17T18:21:09.708Z,72.70
2018-10-17T18:23:38.031Z,72.90
2018-10-17T18:26:06.372Z,73.00
2018-10-17T18:28:34.830Z,73.00
2018-10-17T18:31:03.064Z,73.20
2018-10-17T18:33:31.379Z,73.20
2018-10-17T18:35:59.743Z,73.30
2018-10-17T18:38:28.154Z,73.40
2018-10-17T18:40:56.488Z,73.40
2018-10-17T18:43:24.969Z,73.60
2018-10-17T18:45:53.318Z,73.90
2018-10-17T18:48:22.455Z,74.10
2018-10-17T18:50:50.868Z,74.10
2018-10-17T18:53:19.202Z,74.20
2018-10-17T18:55:47.707Z,74.40
2018-10-17T18:58:16.025Z,74.50
2018-10-17T19:00:44.344Z,74.40
2018-10-17T19:03:12.728Z,74.40
2018-10-17T19:05:41.007Z,74.60
2018-10-17T19:08:09.461Z,74.70
2018-10-17T19:10:37.711Z,74.90
2018-10-17T19:13:06.221Z,74.80
2018-10-17T19:15:34.743Z,74.90
2018-10-17T19:18:03.045Z,75.80
2018-10-17T19:20:31.367Z,75.30
2018-10-17T19:22:59.668Z,75.50
2018-10-17T19:25:27.984Z,75.60
2018-10-17T19:27:56.288Z,75.50
2018-10-17T19:30:24.608Z,75.70
2018-10-17T19:32:53.074Z,76.10
2018-10-17T19:35:21.412Z,75.90
2018-10-17T19:37:49.718Z,75.90
2018-10-17T19:40:18.060Z,75.90
2018-10-17T19:42:46.379Z,76.10
2018-10-17T19:45:14.755Z,76.00
2018-10-17T19:47:43.039Z,76.00
2018-10-17T19:50:11.380Z,76.20
2018-10-17T19:52:39.680Z,76.40
2018-10-17T19:55:08.688Z,76.50
2018-10-17T19:57:43.768Z,76.70
2018-10-17T20:00:13.631Z,76.90
2018-10-17T20:02:42.607Z,77.00
2018-10-17T20:05:11.212Z,77.20
2018-10-17T20:07:40.037Z,77.40
2018-10-17T20:10:08.449Z,77.60
2018-10-17T20:12:36.952Z,77.70
2018-10-17T20:15:06.032Z,77.80
2018-10-17T20:17:34.309Z,77.90
2018-10-17T20:20:02.644Z,78.10
2018-10-17T20:22:30.935Z,77.50
2018-10-17T20:24:59.315Z,78.30
2018-10-17T20:27:27.593Z,78.10
2018-10-17T20:29:55.911Z,78.10
2018-10-17T20:32:24.199Z,78.00
2018-10-17T20:34:52.574Z,77.90
2018-10-17T20:37:20.851Z,77.60
2018-10-17T20:39:49.164Z,78.50
2018-10-17T20:42:17.499Z,78.00
2018-10-17T20:44:45.812Z,78.30
2018-10-17T20:47:14.103Z,78.60
2018-10-17T20:49:42.487Z,78.70
2018-10-17T20:52:10.843Z,78.90
2018-10-17T20:54:39.119Z,79.20
2018-10-17T20:57:07.418Z,79.10
2018-10-17T20:59:35.728Z,79.20
2018-10-17T21:02:04.328Z,79.20
2018-10-17T21:04:32.647Z,79.50
2018-10-17T21:07:00.936Z,79.20
2018-10-17T21:09:29.257Z,79.50
2018-10-17T21:11:57.543Z,79.70
2018-10-17T21:14:25.855Z,79.80
2018-10-17T21:16:54.148Z,80.00
2018-10-17T21:19:22.477Z,80.00
2018-10-17T21:21:50.766Z,80.00
2018-10-17T21:24:19.054Z,79.90
2018-10-17T21:26:47.439Z,79.70
2018-10-17T21:29:15.675Z,79.40
2018-10-17T21:31:43.998Z,79.30
2018-10-17T21:34:12.292Z,79.50
2018-10-17T21:36:40.603Z,79.50
2018-10-17T21:39:10.521Z,79.60
2018-10-17T21:41:38.834Z,79.80
2018-10-17T21:44:11.098Z,80.20
2018-10-17T21:46:39.859Z,80.50
2018-10-17T21:49:09.149Z,80.80
2018-10-17T21:51:37.559Z,80.80
2018-10-17T21:54:06.011Z,80.90
2018-10-17T21:56:34.383Z,81.10
2018-10-17T21:59:02.870Z,81.00
2018-10-17T22:01:31.192Z,81.20
2018-10-17T22:03:59.498Z,81.30
2018-10-17T22:06:27.821Z,81.30
2018-10-17T22:08:56.115Z,81.40
2018-10-17T22:11:24.432Z,81.00
2018-10-17T22:13:52.756Z,81.40
2018-10-17T22:16:21.063Z,81.50
2018-10-17T22:18:49.443Z,81.80
2018-10-17T22:21:17.693Z,81.70
2018-10-17T22:23:45.990Z,81.80
2018-10-17T22:26:14.348Z,82.20
2018-10-17T22:28:42.620Z,82.50
2018-10-17T22:31:10.935Z,82.30
2018-10-17T22:33:39.228Z,82.20
2018-10-17T22:36:07.545Z,82.50
2018-10-17T22:38:35.839Z,82.40
2018-10-17T22:41:04.194Z,82.30
2018-10-17T22:43:32.476Z,82.10
2018-10-17T22:46:00.804Z,82.40
2018-10-17T22:48:29.095Z,82.40
2018-10-17T22:50:57.408Z,82.30
2018-10-17T22:53:25.710Z,82.30
2018-10-17T22:55:54.066Z,82.50
2018-10-17T22:58:22.351Z,82.60
2018-10-17T23:00:50.663Z,82.70
2018-10-17T23:03:18.955Z,82.80
2018-10-17T23:05:47.280Z,82.80
2018-10-17T23:08:15.669Z,82.80
2018-10-17T23:10:43.919Z,83.00
2018-10-17T23:13:12.235Z,83.00
2018-10-17T23:15:40.607Z,83.00
2018-10-17T23:18:08.899Z,82.80
2018-10-17T23:20:37.222Z,82.80
2018-10-17T23:23:05.515Z,82.70
2018-10-17T23:25:33.825Z,83.10
2018-10-17T23:28:02.141Z,83.20
2018-10-17T23:30:30.453Z,83.20
2018-10-17T23:32:58.744Z,83.30
2018-10-17T23:35:27.077Z,83.40
2018-10-17T23:37:55.387Z,83.40
2018-10-17T23:40:23.683Z,83.50
2018-10-17T23:42:51.991Z,83.40
2018-10-17T23:45:20.304Z,83.40
2018-10-17T23:47:48.620Z,83.40
2018-10-17T23:50:16.979Z,83.40
2018-10-17T23:52:45.244Z,83.20
2018-10-17T23:55:13.552Z,83.10
2018-10-17T23:57:41.872Z,83.00
